Menzel Bourguiba, Tunisia
Current Conditions -  °F | °C
As of 10:00 PM on Monday 20 Oct 2014 (Local Time) from DTTB Reporting Station
Clear Clear  
Wind Chill: 64°   Ceiling: Unl
Heat Index: 64°   Visibility: 5mi
Dew Point: 61°   Wind: 3mph
Humidity: 88%   Direction: 150°SSE
Pressure: 30.15"   Gusts: NA
Location:  37.16°N, 9.79°E
Report Text: DTTB 202100Z 15003KT 8000 NSC 18/16 Q1021
Loading
Personal Weather Stations






























Interactive Weather Map
Tropical Storm Tracking
New forecast layout! Learn more

10-Day Weather Forecast

Advertisements
Track Severe Weather on mobile